Time;durP1;ratioP1;P1;durP2;ratioP2;P2;SDS_P1;SDS_P2;PMS_P1;PMS_P2;Temp;Humidity;BMP_temperature;BMP_pressure;BME280_temperature;BME280_humidity;BME280_pressure;Samples;Min_cycle;Max_cycle;Signal;HPM_P1;HPM_P2
2022/04/12 00:01:05;;;;;;;47.65;22.75;;;;;;;2.21;100.00;99161.25;4436448;32;20038;-73
2022/04/12 00:03:32;;;;;;;51.37;22.55;;;;;;;1.87;100.00;99125.59;4436435;32;20371;-73
2022/04/12 00:05:58;;;;;;;40.78;21.27;;;;;;;2.02;100.00;99162.72;4435357;32;20436;-72
2022/04/12 00:08:25;;;;;;;49.85;22.20;;;;;;;1.91;100.00;99169.34;4436238;32;20358;-73
2022/04/12 00:10:53;;;;;;;52.40;22.30;;;;;;;1.85;100.00;99172.75;4436446;32;20064;-73
2022/04/12 00:13:20;;;;;;;48.08;21.15;;;;;;;1.78;100.00;99176.16;4435254;32;20060;-73
2022/04/12 00:15:49;;;;;;;43.58;20.02;;;;;;;1.44;100.00;99129.91;4436223;32;20042;-74
2022/04/12 00:21:02;;;;;;;40.33;19.45;;;;;;;1.77;100.00;99161.28;4435544;32;20017;-73
2022/04/12 00:23:29;;;;;;;42.08;19.45;;;;;;;1.81;100.00;99164.38;4434452;32;20068;-74
2022/04/12 00:25:56;;;;;;;57.45;21.10;;;;;;;1.57;100.00;99131.06;4436396;32;20060;-73
2022/04/12 00:28:22;;;;;;;53.65;21.80;;;;;;;1.68;100.00;99146.47;4436145;32;20402;-74
2022/04/12 00:30:49;;;;;;;41.67;20.67;;;;;;;1.60;100.00;99149.25;4434971;32;20064;-74
2022/04/12 00:33:15;;;;;;;39.90;17.00;;;;;;;1.33;100.00;99117.13;4435882;32;20083;-74
2022/04/12 00:35:42;;;;;;;47.30;19.75;;;;;;;1.54;100.00;99150.00;4436256;32;20039;-74
2022/04/12 00:38:24;;;;;;;39.33;18.55;;;;;;;1.87;100.00;99165.44;4435973;32;20042;-74
2022/04/12 00:40:51;;;;;;;42.72;20.00;;;;;;;1.81;100.00;99162.53;4436018;32;20018;-73
2022/04/12 00:43:19;;;;;;;44.45;18.40;;;;;;;1.62;100.00;99160.50;4436158;32;20042;-74
2022/04/12 00:45:48;;;;;;;44.78;21.35;;;;;;;1.27;100.00;99117.87;4434771;32;20180;-73
2022/04/12 00:48:21;;;;;;;47.67;21.05;;;;;;;1.21;100.00;99131.87;4434933;32;20063;-73
2022/04/12 00:50:48;;;;;;;59.30;23.87;;;;;;;1.32;100.00;99155.25;4435855;32;20046;-74
2022/04/12 00:55:48;;;;;;;56.10;23.45;;;;;;;0.80;100.00;99116.47;4436374;32;20018;-74
2022/04/12 00:58:15;;;;;;;48.85;22.55;;;;;;;1.03;100.00;99175.53;4445782;32;20160;-73
2022/04/12 01:00:41;;;;;;;48.40;22.50;;;;;;;0.97;100.00;99181.56;4436320;32;20072;-74
2022/04/12 01:03:08;;;;;;;55.53;23.05;;;;;;;0.86;100.00;99176.72;4436079;32;20347;-73
2022/04/12 01:05:36;;;;;;;54.17;22.75;;;;;;;0.53;100.00;99124.09;4436017;32;20091;-73
2022/04/12 01:08:03;;;;;;;48.80;20.73;;;;;;;0.64;100.00;99160.72;4443349;32;20097;-73
2022/04/12 01:10:34;;;;;;;39.38;18.85;;;;;;;0.65;100.00;99156.25;4443145;32;20113;-74
2022/04/12 01:13:01;;;;;;;41.33;18.33;;;;;;;0.59;100.00;99103.97;4442644;32;20448;-73
2022/04/12 01:15:28;;;;;;;43.25;20.25;;;;;;;1.18;100.00;99150.81;4443299;32;20094;-73
2022/04/12 01:17:56;;;;;;;40.22;20.62;;;;;;;1.28;100.00;99172.59;4438395;32;20128;-73
2022/04/12 01:20:24;;;;;;;43.87;19.42;;;;;;;0.76;100.00;99115.22;4435996;32;20047;-73
2022/04/12 01:23:09;;;;;;;55.25;20.75;;;;;;;0.91;100.00;99174.38;4434166;32;20027;-73
2022/04/12 01:25:39;;;;;;;48.08;21.75;;;;;;;0.45;100.00;99134.78;4435551;32;20056;-74
2022/04/12 01:28:10;;;;;;;50.12;22.08;;;;;;;0.32;100.00;99133.56;4434705;32;20042;-73
2022/04/12 01:30:38;;;;;;;57.05;23.52;;;;;;;0.54;100.00;99176.06;4434446;32;20049;-73
2022/04/12 01:33:07;;;;;;;50.95;20.77;;;;;;;0.48;100.00;99171.47;4434463;32;20069;-73
2022/04/12 01:35:33;;;;;;;43.90;22.45;;;;;;;0.46;100.00;99179.63;4435490;32;20034;-73
2022/04/12 01:38:01;;;;;;;67.40;24.58;;;;;;;0.45;100.00;99171.88;4435561;32;20038;-73
2022/04/12 01:40:27;;;;;;;46.37;21.58;;;;;;;0.05;100.00;99135.00;4435323;32;20064;-73
2022/04/12 01:42:54;;;;;;;42.47;22.15;;;;;;;0.28;100.00;99161.41;4421414;32;20060;-73
2022/04/12 01:45:21;;;;;;;49.30;23.38;;;;;;;0.03;100.00;99136.16;4433843;32;20039;-73
2022/04/12 01:47:47;;;;;;;50.75;22.50;;;;;;;0.07;100.00;99148.03;4435218;32;20355;-73
2022/04/12 01:50:14;;;;;;;50.55;22.08;;;;;;;-0.08;100.00;99135.59;4435345;32;20064;-73
2022/04/12 01:52:41;;;;;;;50.53;21.73;;;;;;;-0.12;100.00;99139.59;4435323;32;20042;-74
2022/04/12 01:55:08;;;;;;;46.78;22.90;;;;;;;0.10;100.00;99187.41;4435310;32;20162;-73
2022/04/12 01:57:34;;;;;;;54.70;23.48;;;;;;;0.03;100.00;99175.88;4435317;32;20077;-73
2022/04/12 02:00:02;;;;;;;59.35;23.83;;;;;;;-0.15;100.00;99147.06;4433717;32;20050;-73
2022/04/12 02:02:38;;;;;;;64.70;23.73;;;;;;;-0.27;100.00;99136.06;4435322;32;20036;-73
2022/04/12 02:05:05;;;;;;;56.13;24.00;;;;;;;-0.29;100.00;99144.16;4435256;32;20199;-73
2022/04/12 02:07:31;;;;;;;50.67;23.50;;;;;;;-0.16;100.00;99177.16;4436605;32;20034;-73
2022/04/12 02:09:58;;;;;;;47.80;22.77;;;;;;;-0.12;100.00;99197.00;4437548;32;20072;-73
2022/04/12 02:12:24;;;;;;;57.17;22.85;;;;;;;-0.28;100.00;99171.47;4436594;32;20095;-73
2022/04/12 02:14:51;;;;;;;58.05;25.73;;;;;;;-0.18;100.00;99193.22;4438206;32;20026;-73
2022/04/12 02:17:18;;;;;;;53.78;22.85;;;;;;;-0.22;100.00;99187.47;4438079;32;20038;-74
2022/04/12 02:19:44;;;;;;;54.15;22.80;;;;;;;-0.24;100.00;99191.28;4438377;32;20364;-73
2022/04/12 02:22:10;;;;;;;48.03;23.77;;;;;;;-0.27;100.00;99191.63;4436974;32;20027;-73
2022/04/12 02:24:37;;;;;;;54.35;24.80;;;;;;;-0.37;100.00;99179.47;4437907;32;20034;-73
2022/04/12 02:27:04;;;;;;;58.22;25.08;;;;;;;-0.32;100.00;99196.62;4449987;32;20454;-73
2022/04/12 02:29:30;;;;;;;58.72;24.20;;;;;;;-0.24;100.00;99201.84;4451460;32;20067;-73
2022/04/12 02:31:56;;;;;;;53.95;24.90;;;;;;;-0.46;100.00;99158.50;4452171;32;20343;-73
2022/04/12 02:34:23;;;;;;;60.38;26.70;;;;;;;-0.08;100.00;99203.56;4453304;32;20041;-72
2022/04/12 02:36:49;;;;;;;61.15;25.27;;;;;;;-0.42;100.00;99163.28;4453340;32;20152;-73
2022/04/12 02:39:16;;;;;;;62.88;26.62;;;;;;;-0.15;100.00;99211.41;4453376;32;20067;-73
2022/04/12 02:41:42;;;;;;;53.70;25.85;;;;;;;-0.49;100.00;99165.00;4452023;32;20063;-73
2022/04/12 02:44:09;;;;;;;53.80;24.70;;;;;;;-0.21;100.00;99209.44;4452592;32;20451;-73
2022/04/12 02:46:35;;;;;;;60.75;25.40;;;;;;;-0.18;100.00;99214.41;4453045;32;20050;-74
2022/04/12 02:49:02;;;;;;;58.53;25.17;;;;;;;-0.39;100.00;99168.22;4452921;32;20058;-73
2022/04/12 02:51:28;;;;;;;50.63;25.10;;;;;;;-0.20;100.00;99211.09;4452373;32;20367;-73
2022/04/12 02:53:55;;;;;;;65.93;26.65;;;;;;;-0.51;100.00;99166.16;4453005;32;20174;-73
2022/04/12 02:56:21;;;;;;;57.53;26.33;;;;;;;-0.34;100.00;99203.91;4452969;32;20347;-73
2022/04/12 02:58:48;;;;;;;57.20;24.17;;;;;;;-0.30;100.00;99210.50;4451980;32;20102;-73
2022/04/12 03:01:14;;;;;;;50.20;25.60;;;;;;;-0.33;100.00;99213.53;4451582;32;20065;-74
2022/04/12 03:03:41;;;;;;;48.22;24.02;;;;;;;-0.53;100.00;99189.31;4451808;32;20076;-73
2022/04/12 03:06:07;;;;;;;58.15;26.83;;;;;;;-0.35;100.00;99223.44;4451700;32;20042;-73
2022/04/12 03:08:33;;;;;;;59.25;26.62;;;;;;;-0.42;100.00;99218.84;4451709;32;20025;-73
2022/04/12 03:11:00;;;;;;;50.70;25.98;;;;;;;-0.34;100.00;99225.09;4451629;32;20034;-73
2022/04/12 03:13:26;;;;;;;62.50;27.30;;;;;;;-0.66;100.00;99168.72;4452044;32;20034;-74
2022/04/12 03:15:53;;;;;;;54.90;25.25;;;;;;;-0.19;100.00;99224.16;4451560;32;20350;-73
2022/04/12 03:18:19;;;;;;;51.08;25.37;;;;;;;-0.49;100.00;99180.03;4452550;32;20079;-73
2022/04/12 03:20:46;;;;;;;57.55;26.85;;;;;;;-0.63;100.00;99158.62;4451694;32;20075;-73
2022/04/12 03:23:12;;;;;;;57.78;23.95;;;;;;;-0.39;100.00;99207.91;4452644;32;20445;-73
2022/04/12 03:25:39;;;;;;;54.75;25.30;;;;;;;-0.55;100.00;99184.19;4452556;32;20041;-73
2022/04/12 03:28:06;;;;;;;52.47;25.67;;;;;;;-0.35;100.00;99218.13;4452348;32;20362;-73
2022/04/12 03:30:32;;;;;;;57.30;26.12;;;;;;;-0.60;100.00;99171.50;4451066;32;20030;-73
2022/04/12 03:32:59;;;;;;;66.07;26.02;;;;;;;-0.26;100.00;99219.75;4452772;32;20144;-73
2022/04/12 03:35:26;;;;;;;58.75;25.92;;;;;;;-0.28;100.00;99221.75;4451344;32;20042;-73
2022/04/12 03:37:52;;;;;;;56.65;25.58;;;;;;;-0.61;100.00;99182.25;4452406;32;20060;-74
2022/04/12 03:40:18;;;;;;;64.18;25.60;;;;;;;-0.39;100.00;99221.13;4450897;32;20068;-74
2022/04/12 03:42:45;;;;;;;52.08;24.70;;;;;;;-0.66;100.00;99177.47;4452290;32;20092;-73
2022/04/12 03:45:11;;;;;;;47.47;24.52;;;;;;;-0.45;100.00;99213.06;4451218;32;20051;-73
2022/04/12 03:47:38;;;;;;;61.33;26.60;;;;;;;-0.43;100.00;99224.28;4451094;32;20038;-73
2022/04/12 03:50:05;;;;;;;56.10;24.95;;;;;;;-0.55;100.00;99210.66;4450994;32;20073;-73
2022/04/12 03:52:31;;;;;;;49.63;23.08;;;;;;;-0.49;100.00;99217.91;4451086;32;20441;-73
2022/04/12 03:54:58;;;;;;;53.75;25.23;;;;;;;-0.38;100.00;99227.28;4452098;32;20033;-73
2022/04/12 03:57:25;;;;;;;52.62;25.23;;;;;;;-0.69;100.00;99190.22;4450807;32;20025;-74
2022/04/12 03:59:51;;;;;;;58.75;25.80;;;;;;;-0.44;100.00;99228.78;4452004;32;20060;-74
2022/04/12 04:02:18;;;;;;;51.53;26.10;;;;;;;-0.64;100.00;99198.47;4450063;32;20194;-73
2022/04/12 04:04:44;;;;;;;58.13;25.95;;;;;;;-0.38;100.00;99241.31;4451776;32;20111;-73
2022/04/12 04:07:11;;;;;;;53.17;25.95;;;;;;;-0.63;100.00;99189.53;4451026;32;20037;-73
2022/04/12 04:09:37;;;;;;;55.92;25.60;;;;;;;-0.38;100.00;99236.03;4450683;32;20162;-73
2022/04/12 04:12:05;;;;;;;71.72;31.90;;;;;;;-0.58;100.00;99209.16;4450640;32;20392;-73
2022/04/12 04:14:33;;;;;;;72.45;31.37;;;;;;;-0.28;100.00;99250.84;4449147;32;20056;-73
2022/04/12 04:17:01;;;;;;;81.60;32.47;;;;;;;-0.29;100.00;99249.19;4449744;32;20029;-76
2022/04/12 04:19:28;;;;;;;75.05;31.37;;;;;;;-0.22;100.00;99260.75;4451602;32;20364;-73
2022/04/12 04:21:55;;;;;;;79.70;34.35;;;;;;;-0.17;100.00;99253.09;4450585;32;20030;-72
2022/04/12 04:24:23;;;;;;;90.68;37.38;;;;;;;-0.42;100.00;99218.00;4451471;32;20067;-72
2022/04/12 04:26:55;;;;;;;65.07;30.50;;;;;;;-0.10;100.00;99261.97;4451114;32;20418;-72
2022/04/12 04:29:23;;;;;;;67.25;30.70;;;;;;;-0.02;100.00;99272.53;4451247;32;20406;-73
2022/04/12 04:31:51;;;;;;;70.57;31.50;;;;;;;-0.28;100.00;99219.09;4450470;32;20096;-73
2022/04/12 04:34:17;;;;;;;79.65;31.23;;;;;;;-0.13;100.00;99227.91;4451214;32;20055;-72
2022/04/12 04:36:44;;;;;;;79.85;34.92;;;;;;;-0.07;100.00;99227.22;4449686;32;20084;-72
2022/04/12 04:39:11;;;;;;;88.57;35.75;;;;;;;0.25;100.00;99273.00;4450351;32;20400;-72
2022/04/12 04:41:37;;;;;;;81.12;38.30;;;;;;;0.30;100.00;99270.66;4451224;32;20079;-72
2022/04/12 04:44:04;;;;;;;97.72;39.65;;;;;;;0.39;100.00;99262.66;4451046;32;20033;-72
2022/04/12 04:46:30;;;;;;;95.97;37.90;;;;;;;0.50;100.00;99271.00;4450053;32;20052;-72
2022/04/12 04:48:56;;;;;;;90.72;38.38;;;;;;;0.56;100.00;99280.06;4451291;32;20067;-73
2022/04/12 04:51:23;;;;;;;80.68;37.35;;;;;;;0.60;100.00;99264.63;4450325;32;20038;-73
2022/04/12 04:53:57;;;;;;;75.97;34.53;;;;;;;0.24;100.00;99197.22;4449270;32;20388;-72
2022/04/12 04:56:25;;;;;;;94.03;35.80;;;;;;;0.62;100.00;99249.38;4450352;32;20037;-73
2022/04/12 04:58:52;;;;;;;90.15;37.20;;;;;;;0.83;100.00;99269.87;4451139;32;20070;-73
2022/04/12 05:01:20;;;;;;;88.93;36.67;;;;;;;0.62;100.00;99226.31;4451154;32;20038;-73
2022/04/12 05:03:47;;;;;;;89.20;37.13;;;;;;;0.98;100.00;99283.97;4450723;32;20060;-74
2022/04/12 05:06:14;;;;;;;77.93;34.97;;;;;;;0.67;100.00;99223.13;4451223;32;20431;-74
2022/04/12 05:08:41;;;;;;;72.20;34.03;;;;;;;1.08;100.00;99278.41;4449748;32;20388;-73
2022/04/12 05:11:07;;;;;;;81.22;33.38;;;;;;;1.04;100.00;99262.03;4450710;32;20026;-72
2022/04/12 05:13:33;;;;;;;74.10;33.55;;;;;;;1.38;100.00;99299.63;4450981;32;20041;-73
2022/04/12 05:16:00;;;;;;;71.18;33.72;;;;;;;1.49;100.00;99296.53;4450974;32;20038;-72
2022/04/12 05:18:26;;;;;;;67.78;32.67;;;;;;;1.62;100.00;99302.00;4449779;32;20034;-72
2022/04/12 05:20:53;;;;;;;70.78;30.70;;;;;;;1.77;100.00;99309.09;4449715;32;20025;-72
2022/04/12 05:23:20;;;;;;;66.95;29.60;;;;;;;1.77;100.00;99288.72;4450732;32;20033;-72
2022/04/12 05:25:46;;;;;;;59.42;27.40;;;;;;;1.94;100.00;99301.75;4450718;32;20034;-73
2022/04/12 05:28:12;;;;;;;51.88;26.40;;;;;;;2.01;100.00;99294.72;4449532;32;20063;-74
2022/04/12 05:30:39;;;;;;;42.97;22.40;;;;;;;2.17;100.00;99310.41;4449348;32;20046;-72
2022/04/12 05:33:05;;;;;;;40.90;19.83;;;;;;;2.25;100.00;99312.12;4450849;32;20410;-73
2022/04/12 05:35:39;;;;;;;50.00;21.55;;;;;;;2.37;100.00;99291.19;4450806;32;20047;-73
2022/04/12 05:38:06;;;;;;;51.03;22.55;;;;;;;2.81;100.00;99319.38;4450822;32;20059;-73
2022/04/12 05:40:45;;;;;;;45.33;18.75;;;;;;;2.92;100.00;99318.03;4451546;32;20087;-73
2022/04/12 05:43:12;;;;;;;38.08;18.85;;;;;;;2.95;100.00;99316.81;4453047;32;20048;-73
2022/04/12 05:45:39;;;;;;;35.95;17.77;;;;;;;2.81;100.00;99281.31;4453332;32;20082;-72
2022/04/12 05:48:05;;;;;;;34.40;18.08;;;;;;;2.90;100.00;99291.63;4453216;32;20090;-73
2022/04/12 05:50:32;;;;;;;24.75;13.55;;;;;;;3.19;100.00;99312.88;4454051;32;20046;-73
2022/04/12 05:52:58;;;;;;;28.42;13.82;;;;;;;3.39;100.00;99313.03;4453885;32;20046;-73
2022/04/12 05:55:26;;;;;;;30.65;13.15;;;;;;;3.45;100.00;99310.41;4453890;32;20081;-74
2022/04/12 05:57:55;;;;;;;27.62;11.18;;;;;;;3.56;100.00;99325.00;4452040;32;20167;-73
2022/04/12 06:00:23;;;;;;;17.30;9.38;;;;;;;3.67;100.00;99326.28;4453639;32;20071;-73
2022/04/12 06:02:52;;;;;;;16.27;8.70;;;;;;;3.77;100.00;99326.75;4454074;32;20336;-73
2022/04/12 06:05:19;;;;;;;18.65;8.98;;;;;;;3.86;100.00;99327.41;4453677;32;20029;-73
2022/04/12 06:07:46;;;;;;;21.45;8.65;;;;;;;3.68;100.00;99289.81;4453703;32;20102;-73
2022/04/12 06:10:15;;;;;;;14.30;8.57;;;;;;;3.94;100.00;99316.56;4452650;32;20038;-73
2022/04/12 06:12:41;;;;;;;15.82;7.70;;;;;;;4.07;100.00;99330.94;4452988;32;20031;-74
2022/04/12 06:15:08;;;;;;;10.88;5.87;;;;;;;4.12;100.00;99323.19;4453438;32;20063;-73
2022/04/12 06:17:36;;;;;;;28.35;12.45;;;;;;;4.18;100.00;99319.72;4453492;32;20172;-73
2022/04/12 06:20:05;;;;;;;10.80;5.15;;;;;;;4.35;100.00;99339.63;4453403;32;20034;-74
2022/04/12 06:22:32;;;;;;;6.57;2.87;;;;;;;4.45;100.00;99343.75;4452412;32;20047;-73
2022/04/12 06:25:00;;;;;;;6.95;2.67;;;;;;;4.28;100.00;99295.34;4452055;32;20046;-74
2022/04/12 06:27:29;;;;;;;7.47;3.28;;;;;;;4.66;100.00;99334.75;4450352;32;20033;-74
2022/04/12 06:29:56;;;;;;;9.38;3.25;;;;;;;4.49;100.00;99299.69;4452093;32;20386;-74
2022/04/12 06:32:25;;;;;;;3.42;2.85;;;;;;;4.75;100.00;99338.87;4453348;32;20068;-73
2022/04/12 06:34:52;;;;;;;3.60;2.95;;;;;;;4.87;100.00;99347.13;4453441;32;20026;-74
2022/04/12 06:37:18;;;;;;;9.10;3.37;;;;;;;4.92;100.00;99350.00;4451662;32;20063;-73
2022/04/12 06:39:45;;;;;;;6.35;3.62;;;;;;;5.03;100.00;99352.03;4451886;32;20069;-73
2022/04/12 06:42:11;;;;;;;3.12;2.78;;;;;;;5.14;100.00;99336.41;4452488;32;20038;-74
2022/04/12 06:44:39;;;;;;;5.50;3.62;;;;;;;4.75;100.00;99300.72;4452306;32;20029;-73
2022/04/12 06:47:05;;;;;;;2.92;1.83;;;;;;;5.04;100.00;99347.50;4451556;32;20103;-72
2022/04/12 06:49:32;;;;;;;6.32;2.62;;;;;;;4.83;100.00;99304.00;4452206;32;20059;-72
2022/04/12 06:51:59;;;;;;;5.70;2.35;;;;;;;5.05;100.00;99333.97;4453252;32;20033;-73
2022/04/12 06:54:27;;;;;;;11.10;3.30;;;;;;;4.99;100.00;99313.44;4451968;32;20048;-73
2022/04/12 06:56:53;;;;;;;3.40;2.40;;;;;;;4.99;100.00;99308.09;4596039;26;20108;-73
2022/04/12 06:59:20;;;;;;;8.52;3.35;;;;;;;5.23;100.00;99356.53;4416011;32;20039;-75
2022/04/12 07:01:47;;;;;;;8.25;3.55;;;;;;;5.35;100.00;99354.91;4417656;32;20400;-73
2022/04/12 07:04:13;;;;;;;5.25;3.97;;;;;;;5.26;100.00;99345.44;4430268;32;20042;-74
2022/04/12 07:06:39;;;;;;;5.10;3.87;;;;;;;5.21;100.00;99322.03;4430941;32;20378;-74
2022/04/12 07:09:08;;;;;;;8.75;4.68;;;;;;;5.50;100.00;99351.16;4421977;32;20046;-73
2022/04/12 07:11:35;;;;;;;11.57;4.35;;;;;;;5.29;100.00;99313.00;4403525;32;20052;-75
2022/04/12 07:14:01;;;;;;;7.57;4.05;;;;;;;5.59;100.00;99355.28;4415337;32;20357;-74
2022/04/12 07:16:27;;;;;;;5.97;3.70;;;;;;;5.68;100.00;99359.34;4407780;32;20416;-74
2022/04/12 07:18:54;;;;;;;10.05;4.10;;;;;;;5.69;100.00;99366.31;4412044;32;20060;-74
2022/04/12 07:21:21;;;;;;;9.80;3.62;;;;;;;5.66;100.00;99358.72;4417700;32;20031;-73
2022/04/12 07:23:50;;;;;;;6.78;3.90;;;;;;;5.53;100.00;99334.72;4416537;32;20038;-74
2022/04/12 07:26:17;;;;;;;8.65;4.12;;;;;;;5.32;100.00;99291.22;4404096;32;20340;-73
2022/04/12 07:28:43;;;;;;;9.15;3.42;;;;;;;5.88;100.00;99369.16;4403085;32;20035;-73
2022/04/12 07:31:10;;;;;;;6.15;3.72;;;;;;;5.94;100.00;99362.97;4417268;32;20064;-76
2022/04/12 07:33:36;;;;;;;4.57;3.37;;;;;;;5.94;100.00;99363.78;4417239;32;20072;-73
2022/04/12 07:36:04;;;;;;;6.82;3.20;;;;;;;5.90;100.00;99354.53;4414902;32;20394;-74
2022/04/12 07:38:31;;;;;;;10.55;3.62;;;;;;;5.94;100.00;99353.09;4418602;32;20068;-73
2022/04/12 07:40:57;;;;;;;6.95;3.60;;;;;;;5.98;100.00;99369.56;4405158;32;20030;-73
2022/04/12 07:43:24;;;;;;;6.20;3.20;;;;;;;6.15;100.00;99370.72;4418441;32;20031;-73
2022/04/12 07:45:50;;;;;;;5.78;3.20;;;;;;;6.04;100.00;99331.28;4417538;32;20042;-73
2022/04/12 07:48:18;;;;;;;10.60;3.87;;;;;;;6.21;100.00;99362.88;4414379;32;20421;-74
2022/04/12 07:50:46;;;;;;;7.82;3.37;;;;;;;6.36;100.00;99372.25;4416066;32;20061;-73
2022/04/12 07:53:13;;;;;;;7.22;3.00;;;;;;;6.40;100.00;99371.84;4417414;32;20383;-73
2022/04/12 07:55:40;;;;;;;5.95;2.90;;;;;;;6.38;100.00;99364.03;4415757;32;20067;-73
2022/04/12 07:58:07;;;;;;;5.93;3.45;;;;;;;6.28;100.00;99328.91;4409916;32;20340;-74
2022/04/12 08:00:34;;;;;;;5.00;3.10;;;;;;;6.47;100.00;99373.44;4421990;32;20039;-73
2022/04/12 08:03:00;;;;;;;2.58;2.30;;;;;;;6.32;100.00;99344.31;4396585;32;20054;-74
2022/04/12 08:05:27;;;;;;;3.65;2.30;;;;;;;6.07;100.00;99330.87;4408519;32;20067;-73
2022/04/12 08:07:53;;;;;;;5.50;2.70;;;;;;;6.52;100.00;99386.19;4407892;32;20064;-74
2022/04/12 08:10:20;;;;;;;7.47;2.60;;;;;;;6.65;100.00;99375.44;4419092;32;20379;-74
2022/04/12 08:12:47;;;;;;;4.53;2.80;;;;;;;6.72;100.00;99375.37;4416539;32;20086;-72
2022/04/12 08:15:15;;;;;;;7.55;4.97;;;;;;;6.77;100.00;99386.25;4423269;32;20038;-72
2022/04/12 08:17:42;;;;;;;7.78;3.10;;;;;;;6.78;100.00;99385.22;4422073;32;20073;-73
2022/04/12 08:20:09;;;;;;;6.25;3.40;;;;;;;6.63;100.00;99348.03;4423416;32;20042;-73
2022/04/12 08:22:37;;;;;;;6.20;2.87;;;;;;;6.93;100.00;99381.41;4421639;32;20064;-72
2022/04/12 08:25:04;;;;;;;3.80;3.00;;;;;;;6.82;100.00;99380.25;4408616;32;20030;-73
2022/04/12 08:27:30;;;;;;;6.43;2.62;;;;;;;6.89;100.00;99365.78;4410667;32;20038;-72
2022/04/12 08:29:57;;;;;;;7.47;3.05;;;;;;;6.96;100.00;99380.97;4418348;32;20055;-72
2022/04/12 08:32:25;;;;;;;6.75;3.87;;;;;;;6.71;100.00;99346.97;4414296;32;20447;-73
2022/04/12 08:34:53;;;;;;;6.25;1.92;;;;;;;6.48;100.00;99326.94;4414967;32;20468;-74
2022/04/12 08:37:21;;;;;;;2.85;2.22;;;;;;;6.66;100.00;99338.78;4413986;32;20450;-73
2022/04/12 08:39:48;;;;;;;6.57;2.70;;;;;;;6.98;100.00;99352.13;4415204;32;20039;-73
2022/04/12 08:42:15;;;;;;;3.92;2.60;;;;;;;6.93;100.00;99354.66;4408565;32;20022;-73
2022/04/12 08:44:49;;;;;;;7.78;2.30;;;;;;;7.17;99.78;99393.97;4412782;32;20378;-74
2022/04/12 08:47:18;;;;;;;4.07;2.55;;;;;;;7.28;100.00;99387.09;4408912;32;20382;-75
2022/04/12 08:49:45;;;;;;;5.15;2.20;;;;;;;7.15;100.00;99366.63;4416652;32;20088;-73
2022/04/12 08:52:14;;;;;;;2.90;2.53;;;;;;;7.36;100.00;99397.53;4416306;32;20035;-73
2022/04/12 08:54:42;;;;;;;2.28;1.92;;;;;;;7.18;100.00;99360.81;4415850;32;20072;-73
2022/04/12 08:57:10;;;;;;;9.48;2.42;;;;;;;7.28;95.58;99395.94;4418924;32;20068;-72
2022/04/12 08:59:38;;;;;;;6.25;2.37;;;;;;;7.32;95.36;99390.16;4420234;32;20157;-73
2022/04/12 09:02:09;;;;;;;2.40;1.98;;;;;;;7.28;91.07;99395.94;4410830;32;20734;-72
2022/04/12 09:07:11;;;;;;;4.85;2.12;;;;;;;7.59;94.66;99412.16;4417494;32;20439;-73
2022/04/12 09:09:40;;;;;;;3.42;1.98;;;;;;;7.50;96.52;99379.50;4422280;32;20038;-74
2022/04/12 09:12:12;;;;;;;8.10;2.58;;;;;;;7.89;92.54;99396.19;4415626;32;20068;-73
2022/04/12 09:14:52;;;;;;;4.43;2.45;;;;;;;8.14;93.77;99404.16;4416295;32;20043;-73
2022/04/12 09:17:35;;;;;;;3.92;2.03;;;;;;;8.14;86.13;99400.66;4426017;32;20090;-75
2022/04/12 09:20:14;;;;;;;7.10;2.25;;;;;;;8.00;77.27;99391.94;4416518;32;20043;-74
2022/04/12 09:22:41;;;;;;;3.53;1.80;;;;;;;7.62;79.59;99364.28;4415365;32;20435;-73
2022/04/12 09:25:10;;;;;;;4.75;2.17;;;;;;;7.92;80.92;99406.47;4417525;32;20034;-76
2022/04/12 09:27:37;;;;;;;5.70;2.08;;;;;;;7.91;82.38;99396.78;4402726;32;20082;-73
2022/04/12 09:30:08;;;;;;;5.07;1.98;;;;;;;7.92;80.03;99395.75;4415547;32;20185;-73
2022/04/12 09:32:41;;;;;;;2.15;1.90;;;;;;;7.94;77.18;99395.53;4401036;32;20038;-73
2022/04/12 09:35:09;;;;;;;3.17;1.83;;;;;;;7.81;73.10;99394.62;4423532;32;20034;-74
2022/04/12 09:37:38;;;;;;;2.87;2.05;;;;;;;7.49;67.91;99363.63;4418519;32;20378;-74
2022/04/12 09:40:06;;;;;;;5.32;2.12;;;;;;;7.51;71.68;99348.16;4416542;32;20066;-74
2022/04/12 09:42:50;;;;;;;3.97;2.45;;;;;;;8.02;78.16;99381.00;4402006;32;20043;-74
2022/04/12 09:45:26;;;;;;;2.95;2.60;;;;;;;8.18;79.85;99372.34;4415031;32;20039;-74
2022/04/12 09:48:01;;;;;;;2.90;1.80;;;;;;;8.37;76.25;99375.81;4412687;32;20087;-73
2022/04/12 09:50:30;;;;;;;1.77;1.48;;;;;;;8.42;67.96;99380.50;4426248;32;20060;-73
2022/04/12 09:53:02;;;;;;;1.60;1.52;;;;;;;8.41;59.17;99370.81;4411498;32;20034;-74
2022/04/12 09:55:40;;;;;;;6.10;1.87;;;;;;;8.46;60.67;99376.34;4431715;32;20080;-73
2022/04/12 09:58:09;;;;;;;4.68;1.87;;;;;;;8.47;65.80;99377.97;4425933;32;20103;-74
2022/04/12 10:03:05;;;;;;;9.75;3.03;;;;;;;8.62;71.50;99381.09;4397679;32;20089;-74
2022/04/12 10:05:32;;;;;;;9.93;2.28;;;;;;;8.62;76.38;99348.88;4400862;32;20043;-73
2022/04/12 10:08:01;;;;;;;2.33;2.12;;;;;;;8.83;73.60;99365.50;4400295;32;20424;-73
2022/04/12 10:10:31;;;;;;;4.12;2.40;;;;;;;8.98;73.27;99376.59;4400368;32;20076;-73
2022/04/12 10:12:59;;;;;;;5.10;2.30;;;;;;;8.91;67.69;99386.66;4407289;32;20050;-74
2022/04/12 10:15:27;;;;;;;4.18;2.10;;;;;;;8.90;69.40;99358.16;4404622;32;20035;-72
2022/04/12 10:17:54;;;;;;;2.83;2.30;;;;;;;8.90;69.84;99379.62;4399484;32;20043;-73
2022/04/12 10:20:22;;;;;;;2.30;2.00;;;;;;;8.89;69.22;99372.66;4402963;32;20042;-74
2022/04/12 10:22:50;;;;;;;3.67;2.22;;;;;;;8.67;67.30;99375.84;4415592;32;20085;-73
2022/04/12 10:25:18;;;;;;;2.15;2.00;;;;;;;8.73;68.74;99380.31;4414250;32;20081;-74
2022/04/12 10:27:48;;;;;;;2.90;2.53;;;;;;;8.70;67.65;99380.75;4393332;32;20035;-73
2022/04/12 10:30:15;;;;;;;6.65;2.40;;;;;;;8.73;64.41;99380.31;4386793;32;20067;-74
2022/04/12 10:32:57;;;;;;;6.28;2.80;;;;;;;8.94;61.14;99374.66;4412090;32;20409;-73
2022/04/12 10:35:24;;;;;;;7.85;2.40;;;;;;;8.94;60.58;99343.22;4417039;32;20072;-73
2022/04/12 10:37:54;;;;;;;3.85;2.15;;;;;;;9.34;58.63;99379.38;4407669;32;20049;-74
2022/04/12 10:40:20;;;;;;;3.45;2.30;;;;;;;8.98;56.48;99354.31;4402077;32;20051;-73
2022/04/12 10:42:49;;;;;;;3.60;2.72;;;;;;;9.18;57.06;99357.50;4417854;32;20034;-73
2022/04/12 10:45:26;;;;;;;3.33;2.17;;;;;;;9.65;60.97;99380.84;4408805;32;20478;-73
2022/04/12 10:47:58;;;;;;;4.03;2.30;;;;;;;9.62;57.68;99339.16;4384989;32;20039;-74
2022/04/12 10:50:25;;;;;;;2.45;2.12;;;;;;;10.12;51.88;99366.53;4388421;32;20051;-73
2022/04/12 10:52:51;;;;;;;3.85;2.25;;;;;;;10.07;63.61;99324.19;4386648;32;20031;-73
2022/04/12 10:55:23;;;;;;;5.68;2.62;;;;;;;10.46;54.95;99366.69;4388837;32;20432;-74
2022/04/12 10:57:51;;;;;;;4.23;2.60;;;;;;;10.25;53.83;99362.75;4407335;32;20371;-74
2022/04/12 11:00:19;;;;;;;4.75;2.70;;;;;;;9.87;53.38;99372.19;4418145;32;20146;-72
2022/04/12 11:02:57;;;;;;;9.65;2.62;;;;;;;10.10;55.13;99365.94;4410214;32;20055;-73
2022/04/12 11:05:32;;;;;;;5.53;2.70;;;;;;;10.24;54.63;99323.44;4403413;32;20043;-73
2022/04/12 11:08:00;;;;;;;3.42;2.37;;;;;;;10.82;51.40;99368.13;4396736;32;20042;-73
2022/04/12 11:10:27;;;;;;;4.30;2.72;;;;;;;11.30;48.72;99351.66;4413250;32;20057;-74
2022/04/12 11:13:10;;;;;;;4.03;2.08;;;;;;;11.72;46.43;99353.87;4401694;32;20065;-73
2022/04/12 11:15:39;;;;;;;4.30;2.17;;;;;;;11.63;43.85;99343.53;4398069;32;20082;-74
2022/04/12 11:18:10;;;;;;;5.85;2.25;;;;;;;11.70;46.72;99366.81;4400897;32;20039;-73
2022/04/12 11:20:39;;;;;;;7.30;2.60;;;;;;;11.54;45.02;99366.56;4400574;32;20217;-72
2022/04/12 11:23:11;;;;;;;5.43;2.15;;;;;;;12.14;43.16;99356.88;4400952;32;20061;-74
2022/04/12 11:25:45;;;;;;;2.67;2.45;;;;;;;12.12;43.41;99333.88;4402412;32;20046;-74
2022/04/12 11:28:15;;;;;;;3.83;2.72;;;;;;;12.39;41.11;99330.41;4403179;32;20061;-73
2022/04/12 11:30:54;;;;;;;7.37;2.30;;;;;;;12.89;42.17;99358.97;4401100;32;20035;-74
2022/04/12 11:33:23;;;;;;;5.03;2.40;;;;;;;13.52;44.12;99371.94;4399361;32;20054;-73
2022/04/12 11:35:52;;;;;;;4.05;2.42;;;;;;;13.88;38.52;99372.12;4395783;32;20057;-73
2022/04/12 11:38:20;;;;;;;5.32;2.40;;;;;;;13.61;36.22;99383.91;4385514;32;20065;-73